Point Arena, CA (95468)

4:56 AM PST on November 23, 2017 (GMT -0800)
Irish Beach | | Change Station

Elev 276 ft 39.02 °N, 123.69 °W | Updated 27 seconds ago

Rain
Rain
58.5 °F
Feels Like 58.5 °F
N
3.0
Wind Variable Wind from NW
Gusts 4.0 mph

Today
High -- | Low -- °F
--% Chance of Precip.
Yesterday
High -- | Low -- °F
Precip. -- in
Pressure 30.14 in
Visibility 7.0 miles
Clouds Few 5500 ft
Mostly Cloudy 11000 ft
Dew Point 57 °F
Humidity 94%
Rainfall 0.00 in
Snow Depth Not available.
7:06 AM 4:55 PM
Waxing Crescent, 21% visible
METAR KUKI 231156Z AUTO 00000KT 7SM FEW055 BKN110 13/12 A3015 RMK AO2 RAB1058E12B36E54 SLP206 P0000 60001 70001 T01280117 10133 20117 51008
Pressure 30.14 in
Visibility 7.0 miles
Clouds Few 5500 ft
Mostly Cloudy 11000 ft
Dew Point 57 °F
Humidity 94%
Rainfall 0.00 in
Snow Depth Not available.
7:06 AM 4:55 PM
Waxing Crescent, 21% visible
METAR KUKI 231156Z AUTO 00000KT 7SM FEW055 BKN110 13/12 A3015 RMK AO2 RAB1058E12B36E54 SLP206 P0000 60001 70001 T01280117 10133 20117 51008

Get Severe Weather Alerts

Thanks for signing up!

Be on the lookout for a verification email in your inbox.

You'll start receiving the daily forecast at 6 AM.

×

10-Day Weather Forecast

Almanac

Astronomy

Nov. 23, 2017 Rise Set
Actual Time
Civil Twilight
Nautical Twilight
Astronomical Twilight
Moon
Length of Visible Light
Length of Day
Tomorrow will be .
, % of the Moon is Illuminated

Today's Extremes

State Highs State Lows

Community

WunderPhotos

Category 6

Welcome to Category 6. This is the collective home for Weather Underground's featured writeups by Dr. Jeff Masters (right), Bob Henson (left), Chris Burt, and other regular contributors.

Nearby

Air Quality

  Air Quality AQ Index Pollutant
Not available.

Snow Depth

Station Depth Elevation

Earthquake Activity

City Distance Mag. Time & Date
Minimum magnitude displayed is 2.5.

Coastal Water Temperatures

Place Temperature

Stations

Nearby Weather Stations

Station Location Temp. Windchill Dew Point Humidity Wind Precip. Elev Updated Type
                   

Watches & Warnings

There are currently no watches in effect.